Time;durP1;ratioP1;P1;durP2;ratioP2;P2;SDS_P1;SDS_P2;PMS_P1;PMS_P2;Temp;Humidity;BMP_temperature;BMP_pressure;BME280_temperature;BME280_humidity;BME280_pressure;Samples;Min_cycle;Max_cycle;Signal;HPM_P1;HPM_P2
2023/08/21 00:01:30;;;;;;;9.93;6.33;;;19.00;99.90;;;;;;4874745;29;20185;-87
2023/08/21 00:03:56;;;;;;;8.83;6.30;;;19.00;99.90;;;;;;4881253;29;20192;-86
2023/08/21 00:06:22;;;;;;;8.73;5.80;;;19.00;99.90;;;;;;4875749;29;20655;-86
2023/08/21 00:08:47;;;;;;;9.47;7.23;;;19.00;99.90;;;;;;4872672;29;20230;-86
2023/08/21 00:11:13;;;;;;;11.27;6.43;;;19.00;99.90;;;;;;4871662;29;20235;-87
2023/08/21 00:13:39;;;;;;;7.70;6.13;;;19.00;99.90;;;;;;4870827;29;20192;-86
2023/08/21 00:16:04;;;;;;;7.67;6.87;;;18.80;99.90;;;;;;4871892;29;20637;-86
2023/08/21 00:18:30;;;;;;;7.27;6.13;;;18.80;99.90;;;;;;4868908;29;20188;-86
2023/08/21 00:20:56;;;;;;;8.60;6.40;;;18.70;99.90;;;;;;4856177;29;20227;-86
2023/08/21 00:23:21;;;;;;;8.70;6.60;;;18.70;99.90;;;;;;4875548;29;20181;-87
2023/08/21 00:25:48;;;;;;;9.60;6.37;;;18.70;99.90;;;;;;4870493;29;20184;-87
2023/08/21 00:28:14;;;;;;;7.30;6.10;;;18.70;99.90;;;;;;4870547;29;20214;-86
2023/08/21 00:30:39;;;;;;;12.10;6.70;;;18.70;99.90;;;;;;4863756;29;20428;-87
2023/08/21 00:33:05;;;;;;;9.23;6.50;;;18.80;99.90;;;;;;4863095;29;20400;-87
2023/08/21 00:35:31;;;;;;;7.47;6.77;;;18.60;99.90;;;;;;4862695;29;20705;-86
2023/08/21 00:37:56;;;;;;;8.00;6.40;;;18.60;99.90;;;;;;4862004;29;20196;-87
2023/08/21 00:40:22;;;;;;;11.63;7.13;;;18.60;99.90;;;;;;4862781;29;20443;-87
2023/08/21 00:42:48;;;;;;;10.87;7.43;;;18.60;99.90;;;;;;4862506;29;20188;-87
2023/08/21 00:45:13;;;;;;;7.83;6.93;;;18.50;99.90;;;;;;4862832;29;20256;-87
2023/08/21 00:47:39;;;;;;;10.53;7.67;;;18.50;99.90;;;;;;4862676;29;20184;-87
2023/08/21 00:50:07;;;;;;;8.80;7.60;;;18.60;99.90;;;;;;4862658;29;20195;-87
2023/08/21 00:52:36;;;;;;;11.43;7.20;;;18.50;99.90;;;;;;4862607;29;20578;-87
2023/08/21 00:55:03;;;;;;;9.43;7.13;;;18.50;99.90;;;;;;4862449;29;20392;-87
2023/08/21 00:57:29;;;;;;;10.13;7.37;;;18.40;99.90;;;;;;4862764;29;20395;-86
2023/08/21 00:59:55;;;;;;;11.60;7.23;;;18.50;99.90;;;;;;4862255;29;20464;-87
2023/08/21 01:02:20;;;;;;;14.70;8.93;;;18.50;99.90;;;;;;4862500;29;20452;-86
2023/08/21 01:04:46;;;;;;;8.20;6.83;;;18.50;99.90;;;;;;4862545;29;20638;-87
2023/08/21 01:07:13;;;;;;;8.37;7.47;;;18.50;99.90;;;;;;4862388;29;20264;-87
2023/08/21 01:10:02;;;;;;;8.70;6.97;;;18.50;99.90;;;;;;4862256;29;20231;-89
2023/08/21 01:12:41;;;;;;;7.97;6.50;;;18.40;99.90;;;;;;4862307;29;20480;-86
2023/08/21 01:15:08;;;;;;;8.20;6.83;;;18.40;99.90;;;;;;4862325;29;20552;-87
2023/08/21 01:17:38;;;;;;;10.13;7.47;;;18.40;99.90;;;;;;4862196;29;20421;-86
2023/08/21 01:20:08;;;;;;;9.00;7.40;;;18.40;99.90;;;;;;4861828;29;20451;-87
2023/08/21 01:22:40;;;;;;;12.47;7.40;;;18.30;99.90;;;;;;4862424;29;20570;-86
2023/08/21 01:25:07;;;;;;;7.77;6.47;;;18.30;99.90;;;;;;4862163;29;20405;-87
2023/08/21 01:27:34;;;;;;;8.73;6.57;;;18.30;99.90;;;;;;4862158;29;20425;-87
2023/08/21 01:30:00;;;;;;;8.73;7.83;;;18.30;99.90;;;;;;4861593;29;20977;-87
2023/08/21 01:32:35;;;;;;;8.87;7.37;;;18.30;99.90;;;;;;4862191;29;20432;-86
2023/08/21 01:35:01;;;;;;;8.77;7.83;;;18.20;99.90;;;;;;4861803;29;20421;-86
2023/08/21 01:37:28;;;;;;;14.57;8.33;;;18.20;99.90;;;;;;4861854;29;20917;-86
2023/08/21 01:39:54;;;;;;;10.07;8.00;;;18.30;99.90;;;;;;4861496;29;20825;-87
2023/08/21 01:42:19;;;;;;;9.20;7.33;;;18.20;99.90;;;;;;4861982;29;20403;-87
2023/08/21 01:44:45;;;;;;;12.70;7.67;;;18.20;99.90;;;;;;4861453;29;20184;-87
2023/08/21 01:47:12;;;;;;;12.10;8.40;;;18.10;99.90;;;;;;4861622;29;20279;-86
2023/08/21 01:49:37;;;;;;;10.37;9.37;;;18.10;99.90;;;;;;4860762;29;20793;-87
2023/08/21 01:52:03;;;;;;;13.93;7.50;;;18.10;99.90;;;;;;4861261;29;20439;-86
2023/08/21 01:54:28;;;;;;;9.63;7.30;;;18.10;99.90;;;;;;4861564;29;20192;-87
2023/08/21 01:56:54;;;;;;;13.73;8.30;;;18.00;99.90;;;;;;4861544;29;20263;-87
2023/08/21 01:59:21;;;;;;;9.27;8.23;;;18.00;99.90;;;;;;4861876;29;20188;-87
2023/08/21 02:01:46;;;;;;;13.53;9.13;;;17.80;99.90;;;;;;4861339;29;20188;-87
2023/08/21 02:04:12;;;;;;;12.13;9.03;;;17.80;99.90;;;;;;4861981;29;20741;-87
2023/08/21 02:06:37;;;;;;;9.07;8.17;;;17.80;99.90;;;;;;4861694;29;20195;-86
2023/08/21 02:09:03;;;;;;;10.13;7.53;;;17.80;99.90;;;;;;4860887;29;20236;-87
2023/08/21 02:11:28;;;;;;;14.47;9.20;;;17.80;99.90;;;;;;4861504;29;20241;-87
2023/08/21 02:13:54;;;;;;;10.77;9.67;;;17.80;99.90;;;;;;4859837;29;20275;-87
2023/08/21 02:16:21;;;;;;;9.80;8.60;;;17.80;99.90;;;;;;4861553;29;20189;-87
2023/08/21 02:18:47;;;;;;;8.10;7.40;;;17.80;99.90;;;;;;4861027;29;20340;-87
2023/08/21 02:21:13;;;;;;;11.57;8.37;;;17.90;99.90;;;;;;4860306;29;20474;-87
2023/08/21 02:23:38;;;;;;;10.60;9.37;;;17.80;99.90;;;;;;4861456;29;20268;-87
2023/08/21 02:26:04;;;;;;;15.33;9.60;;;17.80;99.90;;;;;;4860914;29;20404;-87
2023/08/21 02:28:30;;;;;;;11.27;9.13;;;17.80;99.90;;;;;;4861420;29;20185;-87
2023/08/21 02:30:55;;;;;;;13.87;9.80;;;17.80;99.90;;;;;;4860370;29;20637;-87
2023/08/21 02:33:21;;;;;;;15.47;9.50;;;17.80;99.90;;;;;;4861238;29;20184;-86
2023/08/21 02:35:46;;;;;;;9.43;8.63;;;17.70;99.90;;;;;;4861279;29;20252;-87
2023/08/21 02:38:12;;;;;;;11.00;8.80;;;17.60;99.90;;;;;;4861286;29;20228;-87
2023/08/21 02:40:38;;;;;;;10.20;9.20;;;17.70;99.90;;;;;;4861231;29;20212;-87
2023/08/21 02:43:03;;;;;;;10.30;9.00;;;17.70;99.90;;;;;;4866826;29;20196;-87
2023/08/21 02:45:29;;;;;;;12.63;9.93;;;17.70;99.90;;;;;;4861577;29;20195;-87
2023/08/21 02:47:55;;;;;;;13.60;9.50;;;17.80;99.90;;;;;;4861048;29;20185;-87
2023/08/21 02:50:20;;;;;;;13.37;10.00;;;17.80;99.90;;;;;;4859759;29;20410;-87
2023/08/21 02:52:46;;;;;;;11.63;9.20;;;17.70;99.90;;;;;;4861010;29;20312;-87
2023/08/21 02:55:12;;;;;;;15.47;9.57;;;17.70;99.90;;;;;;4861418;29;20212;-87
2023/08/21 02:57:37;;;;;;;10.20;9.20;;;17.70;99.90;;;;;;4861262;29;20188;-87
2023/08/21 03:00:04;;;;;;;9.63;8.40;;;17.70;99.90;;;;;;4860932;29;20726;-87
2023/08/21 03:02:29;;;;;;;10.60;8.30;;;17.70;99.90;;;;;;4863483;29;20283;-87
2023/08/21 03:04:55;;;;;;;12.47;8.93;;;17.70;99.90;;;;;;4864235;29;20993;-86
2023/08/21 03:07:20;;;;;;;10.87;8.10;;;17.70;99.90;;;;;;4863931;29;20189;-87
2023/08/21 03:09:47;;;;;;;10.20;9.30;;;17.70;99.90;;;;;;4864551;29;20247;-88
2023/08/21 03:12:12;;;;;;;10.63;9.53;;;17.80;99.90;;;;;;4864371;29;20219;-87
2023/08/21 03:14:38;;;;;;;16.03;9.77;;;17.80;99.90;;;;;;4864402;29;20925;-87
2023/08/21 03:17:04;;;;;;;11.53;8.57;;;17.70;99.90;;;;;;4864161;29;20578;-87
2023/08/21 03:19:29;;;;;;;10.33;9.23;;;17.70;99.90;;;;;;4863821;29;20575;-87
2023/08/21 03:21:55;;;;;;;10.23;8.50;;;17.60;99.90;;;;;;4863954;29;20192;-87
2023/08/21 03:24:20;;;;;;;11.77;9.40;;;17.60;99.90;;;;;;4864250;29;20195;-87
2023/08/21 03:26:46;;;;;;;13.40;9.80;;;17.60;99.90;;;;;;4864201;29;20263;-87
2023/08/21 03:29:12;;;;;;;10.07;9.03;;;17.60;99.90;;;;;;4864404;29;20188;-87
2023/08/21 03:31:37;;;;;;;13.10;8.87;;;17.60;99.90;;;;;;4864103;29;20245;-87
2023/08/21 03:34:03;;;;;;;8.67;7.97;;;17.60;99.90;;;;;;4863917;29;20194;-86
2023/08/21 03:36:31;;;;;;;10.67;9.63;;;17.60;99.90;;;;;;4863727;29;20554;-86
2023/08/21 03:39:00;;;;;;;9.27;8.37;;;17.70;99.90;;;;;;4863818;29;20291;-87
2023/08/21 03:41:27;;;;;;;14.23;9.77;;;17.80;99.90;;;;;;4863873;29;20572;-85
2023/08/21 03:43:53;;;;;;;8.83;7.97;;;17.70;99.90;;;;;;4863600;29;20399;-86
2023/08/21 03:46:18;;;;;;;13.73;9.00;;;17.70;99.90;;;;;;4864008;29;20753;-86
2023/08/21 03:48:44;;;;;;;10.77;9.40;;;17.70;99.90;;;;;;4864050;29;20412;-86
2023/08/21 03:51:10;;;;;;;11.40;9.37;;;17.70;99.90;;;;;;4863819;29;20188;-85
2023/08/21 03:53:35;;;;;;;11.10;7.87;;;17.70;99.90;;;;;;4863770;29;20717;-86
2023/08/21 03:56:01;;;;;;;15.20;9.27;;;17.70;99.90;;;;;;4863641;29;20275;-87
2023/08/21 03:58:26;;;;;;;10.80;9.00;;;17.70;99.90;;;;;;4863730;29;20184;-86
2023/08/21 04:00:55;;;;;;;9.70;8.50;;;17.80;99.90;;;;;;4863758;29;20216;-86
2023/08/21 04:03:21;;;;;;;12.50;8.90;;;17.80;99.90;;;;;;4863438;29;20608;-86
2023/08/21 04:05:47;;;;;;;9.63;8.73;;;17.60;99.90;;;;;;4863018;29;20396;-85
2023/08/21 04:08:13;;;;;;;9.00;7.47;;;17.50;99.90;;;;;;4861754;29;20940;-86
2023/08/21 04:10:39;;;;;;;11.00;7.80;;;17.50;99.90;;;;;;4863552;29;20435;-86
2023/08/21 04:13:04;;;;;;;8.10;7.27;;;17.50;99.90;;;;;;4862236;29;20884;-86
2023/08/21 04:15:30;;;;;;;10.97;8.00;;;17.40;99.90;;;;;;4863109;29;20189;-86
2023/08/21 04:17:56;;;;;;;9.07;7.23;;;17.40;99.90;;;;;;4863146;29;20427;-86
2023/08/21 04:20:22;;;;;;;8.90;7.33;;;17.40;99.90;;;;;;4863112;29;20482;-86
2023/08/21 04:22:48;;;;;;;9.37;7.43;;;17.50;99.90;;;;;;4863076;29;20207;-87
2023/08/21 04:25:14;;;;;;;10.77;8.10;;;17.50;99.90;;;;;;4863144;29;20646;-86
2023/08/21 04:27:40;;;;;;;11.53;8.27;;;17.60;99.90;;;;;;4862700;29;20483;-86
2023/08/21 04:30:06;;;;;;;15.07;8.50;;;17.50;99.90;;;;;;4863055;29;20199;-86
2023/08/21 04:32:31;;;;;;;8.80;7.20;;;17.40;99.90;;;;;;4863075;29;20690;-86
2023/08/21 04:34:57;;;;;;;10.00;7.70;;;17.40;99.90;;;;;;4862716;29;20513;-86
2023/08/21 04:37:23;;;;;;;9.43;7.90;;;17.30;99.90;;;;;;4862971;29;20534;-85
2023/08/21 04:39:55;;;;;;;12.10;8.07;;;17.30;99.90;;;;;;4862796;29;20215;-85
2023/08/21 04:42:22;;;;;;;18.03;9.53;;;17.40;99.90;;;;;;4862898;29;20482;-86
2023/08/21 04:44:47;;;;;;;9.87;8.97;;;17.30;99.90;;;;;;4862818;29;20806;-85
2023/08/21 04:47:39;;;;;;;13.03;8.47;;;17.30;99.90;;;;;;4862406;29;20546;-86
2023/08/21 04:50:05;;;;;;;9.27;8.27;;;17.30;99.90;;;;;;4858657;29;20700;-86
2023/08/21 04:52:31;;;;;;;8.70;7.80;;;17.20;99.90;;;;;;4862811;29;20421;-86
2023/08/21 04:54:56;;;;;;;12.50;8.63;;;17.20;99.90;;;;;;4862428;29;20425;-87
2023/08/21 04:57:22;;;;;;;13.23;8.20;;;17.20;99.90;;;;;;4862751;29;20180;-86
2023/08/21 04:59:48;;;;;;;10.33;8.37;;;17.20;99.90;;;;;;4862502;29;20208;-86
2023/08/21 05:02:13;;;;;;;10.77;8.40;;;17.20;99.90;;;;;;4862278;29;20187;-86
2023/08/21 05:04:39;;;;;;;12.73;8.60;;;17.20;99.90;;;;;;4862847;29;20754;-86
2023/08/21 05:07:05;;;;;;;10.00;8.67;;;17.30;99.90;;;;;;4862043;29;20271;-86
2023/08/21 05:09:34;;;;;;;12.43;7.90;;;17.30;99.90;;;;;;4862620;29;20236;-86
2023/08/21 05:11:59;;;;;;;13.90;7.40;;;17.30;99.90;;;;;;4861922;29;20421;-87
2023/08/21 05:14:25;;;;;;;11.60;8.33;;;17.20;99.90;;;;;;4862390;29;20810;-86
2023/08/21 05:16:51;;;;;;;10.00;8.40;;;17.20;99.90;;;;;;4862174;29;20219;-86
2023/08/21 05:19:17;;;;;;;9.17;8.10;;;17.30;99.90;;;;;;4861948;29;20418;-86
2023/08/21 05:21:43;;;;;;;8.80;6.90;;;17.30;99.90;;;;;;4861787;29;20765;-86
2023/08/21 05:24:09;;;;;;;15.27;7.00;;;17.30;99.90;;;;;;4861680;29;20396;-86
2023/08/21 05:26:39;;;;;;;10.37;7.70;;;17.40;99.90;;;;;;4861879;29;20508;-86
2023/08/21 05:29:04;;;;;;;11.60;8.10;;;17.40;99.90;;;;;;4861881;29;20526;-86
2023/08/21 05:31:30;;;;;;;9.23;8.37;;;17.50;99.90;;;;;;4861948;29;20437;-86
2023/08/21 05:33:56;;;;;;;11.67;8.03;;;17.50;99.90;;;;;;4861744;29;20231;-87
2023/08/21 05:36:21;;;;;;;9.43;7.83;;;17.50;99.90;;;;;;4862010;29;20188;-86
2023/08/21 05:38:48;;;;;;;13.67;7.67;;;17.70;99.90;;;;;;4861926;29;20270;-86
2023/08/21 05:41:14;;;;;;;8.30;7.00;;;17.60;99.90;;;;;;4861350;29;20681;-86
2023/08/21 05:43:42;;;;;;;10.67;8.40;;;17.60;99.90;;;;;;4861673;29;20926;-86
2023/08/21 05:46:08;;;;;;;10.73;9.30;;;17.70;99.90;;;;;;4861375;29;20433;-86
2023/08/21 05:48:33;;;;;;;8.90;7.50;;;17.70;99.90;;;;;;4861802;29;20392;-86
2023/08/21 05:50:59;;;;;;;11.43;8.60;;;17.90;99.90;;;;;;4861607;29;20553;-87
2023/08/21 05:53:25;;;;;;;12.20;7.40;;;18.10;99.90;;;;;;4862145;29;20645;-84
2023/08/21 05:55:51;;;;;;;16.30;8.20;;;18.20;99.90;;;;;;4864183;29;20263;-87
2023/08/21 05:58:17;;;;;;;11.40;6.77;;;18.10;99.90;;;;;;4861445;29;20185;-87
2023/08/21 06:00:44;;;;;;;16.80;7.53;;;18.10;99.90;;;;;;4861560;29;20446;-86
2023/08/21 06:03:09;;;;;;;13.10;8.37;;;18.20;99.90;;;;;;4861481;29;20225;-86
2023/08/21 06:05:35;;;;;;;8.43;7.00;;;18.20;99.90;;;;;;4861415;29;20424;-87
2023/08/21 06:08:01;;;;;;;12.53;6.30;;;18.10;99.90;;;;;;4861616;29;20259;-87
2023/08/21 06:10:26;;;;;;;9.50;6.80;;;18.10;99.90;;;;;;4861846;29;20177;-87
2023/08/21 06:12:52;;;;;;;11.17;7.10;;;18.20;99.90;;;;;;4861467;29;20630;-86
2023/08/21 06:15:17;;;;;;;9.50;6.70;;;18.20;99.90;;;;;;4861425;29;20317;-86
2023/08/21 06:17:43;;;;;;;11.43;6.93;;;18.30;99.90;;;;;;4861551;29;20554;-86
2023/08/21 06:20:09;;;;;;;11.33;7.33;;;18.50;99.90;;;;;;4861263;29;20548;-86
2023/08/21 06:22:35;;;;;;;8.67;6.17;;;18.50;99.90;;;;;;4861853;29;20240;-87
2023/08/21 06:25:01;;;;;;;12.57;6.53;;;18.50;99.90;;;;;;4861278;29;20188;-87
2023/08/21 06:27:27;;;;;;;9.30;6.00;;;18.60;99.90;;;;;;4861168;29;20760;-87
2023/08/21 06:29:52;;;;;;;9.73;6.57;;;18.70;99.90;;;;;;4861437;29;20200;-86
2023/08/21 06:32:18;;;;;;;15.10;6.67;;;18.70;99.90;;;;;;4861440;29;20196;-86
2023/08/21 06:34:43;;;;;;;12.13;5.80;;;18.70;99.90;;;;;;4861684;29;20208;-87
2023/08/21 06:37:09;;;;;;;12.00;6.10;;;18.90;99.90;;;;;;4863086;29;20188;-87
2023/08/21 06:39:35;;;;;;;18.20;5.80;;;19.00;99.90;;;;;;4864888;29;20191;-86
2023/08/21 06:42:00;;;;;;;10.43;5.37;;;19.20;99.90;;;;;;4864938;29;20192;-88
2023/08/21 06:44:26;;;;;;;7.43;6.03;;;19.30;99.90;;;;;;4865044;29;20180;-89
2023/08/21 06:46:52;;;;;;;12.70;7.00;;;19.20;99.90;;;;;;4865566;29;20242;-89
2023/08/21 06:49:17;;;;;;;9.80;5.33;;;19.30;99.90;;;;;;4864769;29;20196;-89
2023/08/21 06:51:43;;;;;;;7.37;5.50;;;19.40;99.90;;;;;;4863341;29;20192;-89
2023/08/21 06:54:09;;;;;;;12.03;5.80;;;19.40;99.90;;;;;;4864588;29;20215;-89
2023/08/21 06:56:35;;;;;;;12.90;6.17;;;19.50;99.90;;;;;;4863711;29;20777;-89
2023/08/21 06:59:01;;;;;;;11.03;5.90;;;19.60;99.90;;;;;;4864520;29;20200;-89
2023/08/21 07:01:26;;;;;;;12.00;6.67;;;19.60;99.90;;;;;;4848379;29;20604;-89
2023/08/21 07:03:52;;;;;;;8.83;5.93;;;19.80;99.90;;;;;;4863499;29;20400;-89
2023/08/21 07:06:17;;;;;;;6.87;5.50;;;19.90;99.90;;;;;;4863200;29;20211;-89
2023/08/21 07:08:43;;;;;;;14.53;5.13;;;19.90;99.90;;;;;;4863086;29;20273;-89
2023/08/21 07:11:09;;;;;;;12.70;5.20;;;20.00;99.90;;;;;;4864221;29;20189;-89
2023/08/21 07:13:36;;;;;;;8.90;5.57;;;20.10;99.90;;;;;;4864462;29;20188;-88
2023/08/21 07:16:02;;;;;;;11.23;5.87;;;20.20;99.90;;;;;;4862947;29;20392;-89
2023/08/21 07:18:29;;;;;;;10.77;4.97;;;20.20;99.90;;;;;;4864156;29;20452;-89
2023/08/21 07:20:57;;;;;;;7.70;4.90;;;20.30;99.90;;;;;;4862883;29;20451;-89
2023/08/21 07:23:23;;;;;;;7.40;4.63;;;20.30;99.90;;;;;;4864057;29;20761;-89
2023/08/21 07:25:49;;;;;;;7.10;4.90;;;20.30;99.90;;;;;;4862973;29;20429;-88
2023/08/21 07:28:14;;;;;;;8.10;5.00;;;20.40;99.90;;;;;;4864033;29;20187;-89
2023/08/21 07:30:40;;;;;;;11.33;5.77;;;20.60;99.90;;;;;;4864260;29;20185;-88
2023/08/21 07:33:05;;;;;;;9.00;5.17;;;20.60;99.90;;;;;;4866876;29;20237;-89
2023/08/21 07:35:32;;;;;;;10.60;5.13;;;20.70;99.90;;;;;;4866705;29;20184;-88
2023/08/21 07:37:57;;;;;;;10.40;6.17;;;20.80;99.90;;;;;;4870695;29;20701;-88
2023/08/21 07:40:23;;;;;;;11.23;5.67;;;21.00;99.90;;;;;;4862488;29;20468;-87
2023/08/21 07:42:49;;;;;;;10.90;5.23;;;21.00;99.90;;;;;;4864085;29;20192;-88
2023/08/21 07:45:14;;;;;;;7.13;6.00;;;20.90;99.90;;;;;;4863828;29;20184;-88
2023/08/21 07:47:40;;;;;;;10.60;6.43;;;21.00;99.90;;;;;;4869832;29;20267;-88
2023/08/21 07:50:06;;;;;;;9.47;4.90;;;21.10;99.90;;;;;;4862389;29;20733;-89
2023/08/21 07:52:32;;;;;;;12.00;5.03;;;21.30;99.90;;;;;;4864016;29;20180;-89
2023/08/21 07:55:00;;;;;;;16.10;5.50;;;21.40;99.90;;;;;;4847228;29;20452;-88
2023/08/21 07:57:26;;;;;;;10.23;5.37;;;21.50;99.90;;;;;;4863776;29;20530;-87
2023/08/21 07:59:52;;;;;;;7.97;4.90;;;21.60;99.90;;;;;;4864073;29;20472;-88
2023/08/21 08:02:17;;;;;;;7.33;6.30;;;21.60;99.90;;;;;;4854426;29;20447;-88
2023/08/21 08:04:43;;;;;;;19.80;6.90;;;21.70;99.90;;;;;;4866316;29;20252;-87
2023/08/21 08:07:09;;;;;;;8.27;5.67;;;21.80;99.90;;;;;;4864195;29;20188;-87
2023/08/21 08:09:35;;;;;;;10.20;6.50;;;21.90;99.90;;;;;;4863763;29;20451;-87
2023/08/21 08:12:01;;;;;;;12.23;7.60;;;22.00;99.90;;;;;;4864336;29;20233;-87
2023/08/21 08:14:27;;;;;;;9.43;6.57;;;21.90;99.90;;;;;;4863226;29;20425;-88
2023/08/21 08:16:52;;;;;;;9.87;5.90;;;22.00;99.90;;;;;;4862163;29;20199;-88
2023/08/21 08:19:18;;;;;;;14.40;6.60;;;22.10;99.90;;;;;;4863104;29;20184;-87
2023/08/21 08:21:44;;;;;;;13.47;6.63;;;22.40;99.90;;;;;;4846719;29;20228;-88
2023/08/21 08:24:09;;;;;;;14.40;6.13;;;22.70;99.90;;;;;;4862862;29;20184;-88
2023/08/21 08:26:35;;;;;;;11.03;5.97;;;22.90;99.90;;;;;;4863138;29;20196;-87
2023/08/21 08:29:01;;;;;;;9.50;6.30;;;23.10;99.90;;;;;;4862333;29;20195;-87
2023/08/21 08:31:27;;;;;;;8.90;5.30;;;23.60;99.90;;;;;;4862625;29;20191;-87
2023/08/21 08:33:54;;;;;;;8.70;5.13;;;23.80;99.90;;;;;;4861951;29;20228;-88
2023/08/21 08:36:20;;;;;;;8.00;5.20;;;24.10;99.90;;;;;;4861641;29;20440;-88
2023/08/21 08:38:45;;;;;;;8.90;5.30;;;24.10;99.90;;;;;;4862560;29;20433;-87
2023/08/21 08:41:25;;;;;;;9.73;7.17;;;24.60;99.90;;;;;;4862872;29;20492;-89
2023/08/21 08:43:51;;;;;;;8.87;5.97;;;24.20;99.90;;;;;;4862881;29;20180;-87
2023/08/21 08:46:17;;;;;;;9.43;6.43;;;24.30;99.90;;;;;;4862467;29;20418;-87
2023/08/21 08:48:43;;;;;;;7.37;6.53;;;24.70;99.90;;;;;;4863520;29;20429;-88
2023/08/21 08:51:09;;;;;;;12.17;5.60;;;24.70;99.90;;;;;;4865845;29;20425;-88
2023/08/21 08:53:37;;;;;;;13.97;6.90;;;25.20;99.90;;;;;;4863025;29;20195;-88
2023/08/21 08:56:02;;;;;;;11.10;6.70;;;25.20;99.90;;;;;;4862796;29;20512;-88
2023/08/21 08:58:29;;;;;;;9.63;5.90;;;25.20;99.90;;;;;;4862266;29;20511;-88
2023/08/21 09:00:54;;;;;;;9.50;7.03;;;25.80;99.90;;;;;;4861706;29;20207;-87
2023/08/21 09:03:20;;;;;;;7.03;6.10;;;26.00;99.90;;;;;;4862197;29;20881;-88
2023/08/21 09:05:48;;;;;;;8.07;5.63;;;26.10;99.90;;;;;;4862316;29;20195;-89
2023/08/21 09:08:14;;;;;;;10.30;5.70;;;25.80;99.90;;;;;;4860799;29;20475;-89
2023/08/21 09:10:41;;;;;;;9.53;6.10;;;26.00;99.90;;;;;;4861004;29;20484;-88
2023/08/21 09:13:16;;;;;;;9.07;5.77;;;26.10;99.90;;;;;;4862255;29;20778;-91
2023/08/21 09:15:43;;;;;;;12.17;7.10;;;26.50;99.90;;;;;;4861611;29;20432;-88
2023/08/21 09:18:12;;;;;;;8.20;6.60;;;26.60;99.90;;;;;;4861776;29;20829;-89
2023/08/21 09:20:38;;;;;;;9.43;6.30;;;26.60;99.90;;;;;;4861916;29;20809;-88
2023/08/21 09:23:04;;;;;;;13.80;7.60;;;26.60;99.90;;;;;;4861753;29;20417;-88
2023/08/21 09:25:54;;;;;;;12.60;7.13;;;26.70;99.90;;;;;;4861779;29;20415;-88
2023/08/21 09:28:21;;;;;;;13.77;7.53;;;27.00;99.90;;;;;;4860087;29;20199;-88
2023/08/21 09:30:58;;;;;;;9.30;7.10;;;26.70;99.90;;;;;;4861845;29;20424;-88
2023/08/21 09:33:24;;;;;;;8.40;6.57;;;27.10;99.90;;;;;;4861568;29;20556;-88
2023/08/21 09:35:54;;;;;;;9.53;6.47;;;27.30;99.90;;;;;;4864380;29;20417;-89
2023/08/21 09:38:20;;;;;;;7.90;7.10;;;26.80;99.90;;;;;;4863530;29;20783;-88
2023/08/21 09:40:53;;;;;;;6.40;5.47;;;27.60;99.90;;;;;;4860545;29;20472;-88
2023/08/21 09:43:21;;;;;;;13.13;9.67;;;27.60;99.90;;;;;;4861620;29;20275;-89
2023/08/21 09:45:48;;;;;;;9.60;8.60;;;27.10;99.90;;;;;;4861205;29;20429;-87
2023/08/21 09:48:14;;;;;;;10.23;7.07;;;27.30;99.90;;;;;;4861402;29;20417;-88
2023/08/21 09:50:43;;;;;;;10.70;6.53;;;27.80;99.90;;;;;;4861324;29;20792;-89
2023/08/21 09:53:09;;;;;;;11.90;6.90;;;27.90;99.90;;;;;;4861160;29;20468;-89
2023/08/21 09:55:37;;;;;;;12.83;9.37;;;27.20;99.90;;;;;;4861254;29;20469;-88
2023/08/21 09:58:03;;;;;;;15.63;8.87;;;27.60;99.90;;;;;;4861222;29;20778;-88
2023/08/21 10:00:30;;;;;;;10.90;8.30;;;27.60;99.90;;;;;;4860941;29;20475;-87
2023/08/21 10:03:02;;;;;;;10.63;7.80;;;27.60;99.90;;;;;;4861258;29;20227;-88
2023/08/21 10:05:29;;;;;;;16.47;8.73;;;27.40;99.90;;;;;;4861138;29;20413;-86
2023/08/21 10:07:56;;;;;;;13.33;7.03;;;27.50;99.90;;;;;;4860004;29;20616;-87
2023/08/21 10:10:22;;;;;;;9.83;7.00;;;28.00;99.90;;;;;;4861035;29;20413;-88
2023/08/21 10:12:49;;;;;;;7.10;5.77;;;28.40;99.90;;;;;;4863869;29;20424;-88
2023/08/21 10:15:15;;;;;;;7.47;6.50;;;28.20;99.90;;;;;;4865099;29;20831;-88
2023/08/21 10:17:43;;;;;;;10.33;6.90;;;28.60;99.90;;;;;;4865261;29;20417;-89
2023/08/21 10:20:09;;;;;;;11.30;8.10;;;28.90;99.90;;;;;;4864754;29;20834;-87
2023/08/21 10:22:46;;;;;;;13.77;9.20;;;28.30;99.90;;;;;;4864191;29;20448;-87
2023/08/21 10:25:17;;;;;;;14.97;10.53;;;29.00;99.90;;;;;;4864856;29;20420;-88
2023/08/21 10:27:43;;;;;;;10.23;8.90;;;29.00;99.90;;;;;;4864846;29;20508;-87
2023/08/21 10:30:19;;;;;;;9.00;8.13;;;29.20;99.90;;;;;;4864748;29;20416;-88
2023/08/21 10:32:48;;;;;;;11.27;8.40;;;28.90;99.90;;;;;;4864738;29;20428;-88
2023/08/21 10:35:28;;;;;;;11.53;8.97;;;28.60;99.90;;;;;;4864526;29;20421;-88
2023/08/21 10:38:19;;;;;;;11.17;7.97;;;28.40;99.90;;;;;;4864632;29;20409;-88
2023/08/21 10:41:06;;;;;;;8.93;7.83;;;29.30;99.90;;;;;;4843687;29;20476;-88
2023/08/21 10:43:45;;;;;;;14.53;7.50;;;29.50;99.90;;;;;;4864321;29;20416;-86
2023/08/21 10:46:12;;;;;;;12.20;8.97;;;29.30;99.90;;;;;;4864652;29;20786;-86
2023/08/21 10:48:38;;;;;;;14.80;9.20;;;29.50;99.90;;;;;;4863929;29;20929;-86
2023/08/21 10:51:09;;;;;;;12.77;9.60;;;29.00;99.90;;;;;;4864393;29;20428;-87
2023/08/21 10:53:35;;;;;;;10.60;7.80;;;28.60;99.90;;;;;;4864199;29;20409;-92
2023/08/21 10:56:02;;;;;;;10.37;8.60;;;28.60;99.90;;;;;;4863260;29;20424;-86
2023/08/21 10:58:34;;;;;;;9.77;8.77;;;28.80;99.90;;;;;;4864775;29;20894;-87
2023/08/21 11:00:59;;;;;;;10.87;8.60;;;28.70;99.90;;;;;;4865511;29;20465;-86
2023/08/21 11:03:25;;;;;;;11.97;7.20;;;28.80;99.90;;;;;;4868173;29;20778;-86
2023/08/21 11:06:04;;;;;;;12.10;8.30;;;28.40;99.90;;;;;;4863550;29;20600;-86
2023/08/21 11:08:32;;;;;;;17.03;8.60;;;28.40;99.90;;;;;;4863904;29;20242;-87
2023/08/21 11:10:58;;;;;;;10.93;6.57;;;28.90;99.90;;;;;;4864361;29;20428;-85
2023/08/21 11:13:24;;;;;;;9.50;7.43;;;28.80;99.90;;;;;;4864009;29;20417;-87
2023/08/21 11:16:01;;;;;;;8.37;7.30;;;29.10;99.90;;;;;;4864002;29;20184;-87
2023/08/21 11:18:45;;;;;;;9.20;6.93;;;29.50;99.90;;;;;;4862351;29;20437;-87
2023/08/21 11:21:11;;;;;;;8.03;7.23;;;29.40;99.90;;;;;;4863847;29;20460;-85
2023/08/21 11:23:39;;;;;;;11.07;7.10;;;29.50;99.90;;;;;;4863204;29;20409;-87
2023/08/21 11:26:07;;;;;;;12.10;6.97;;;29.20;99.90;;;;;;4863921;29;20436;-88
2023/08/21 11:28:33;;;;;;;8.20;6.30;;;29.30;99.90;;;;;;4862371;29;20417;-86
2023/08/21 11:30:59;;;;;;;9.20;6.97;;;29.30;99.90;;;;;;4862601;29;20873;-86
2023/08/21 11:33:26;;;;;;;10.17;8.40;;;29.30;99.90;;;;;;4864687;29;20418;-87
2023/08/21 11:35:57;;;;;;;11.57;9.63;;;29.10;99.90;;;;;;4864996;29;20421;-86
2023/08/21 11:38:25;;;;;;;10.10;7.23;;;28.80;99.90;;;;;;4863447;29;20805;-86
2023/08/21 11:40:52;;;;;;;10.67;7.53;;;28.80;99.90;;;;;;4864455;29;20482;-86
2023/08/21 11:43:19;;;;;;;11.10;7.00;;;28.90;99.90;;;;;;4862989;29;20429;-87
2023/08/21 11:45:46;;;;;;;7.93;6.50;;;29.00;99.90;;;;;;4863722;29;20749;-89
2023/08/21 11:48:12;;;;;;;7.37;6.40;;;28.50;99.90;;;;;;4863547;29;20421;-86
2023/08/21 11:50:39;;;;;;;9.90;7.00;;;28.90;99.90;;;;;;4863262;29;20921;-86
2023/08/21 11:53:05;;;;;;;10.10;6.47;;;29.60;99.90;;;;;;4863780;29;20433;-87
2023/08/21 11:55:31;;;;;;;6.30;5.20;;;29.70;99.90;;;;;;4863389;29;20779;-88
2023/08/21 11:57:57;;;;;;;7.07;6.37;;;30.50;99.90;;;;;;4863760;29;20417;-87
2023/08/21 12:00:29;;;;;;;8.87;6.17;;;31.00;99.90;;;;;;4862877;29;20303;-88
2023/08/21 12:02:56;;;;;;;8.37;5.40;;;30.30;99.90;;;;;;4863154;29;20436;-88
2023/08/21 12:05:22;;;;;;;10.53;5.03;;;30.40;99.90;;;;;;4863044;29;20432;-85
2023/08/21 12:07:47;;;;;;;11.23;4.93;;;30.50;99.90;;;;;;4862834;29;20477;-89
2023/08/21 12:10:13;;;;;;;10.37;4.83;;;30.50;99.90;;;;;;4862044;29;20184;-86
2023/08/21 12:12:39;;;;;;;7.07;4.90;;;31.00;99.90;;;;;;4862886;29;20185;-87
2023/08/21 12:15:05;;;;;;;9.23;4.57;;;31.10;99.90;;;;;;4862679;29;20196;-87
2023/08/21 12:17:30;;;;;;;15.03;5.07;;;31.40;99.90;;;;;;4861443;29;20192;-87
2023/08/21 12:19:56;;;;;;;19.00;5.70;;;31.60;99.90;;;;;;4862871;29;20480;-86
2023/08/21 12:22:22;;;;;;;6.40;4.30;;;31.30;99.90;;;;;;4860891;29;20224;-87
2023/08/21 12:24:47;;;;;;;4.73;4.13;;;30.90;99.90;;;;;;4862650;29;20248;-86
2023/08/21 12:27:13;;;;;;;16.03;5.57;;;30.60;99.90;;;;;;4862396;29;20183;-86
2023/08/21 12:29:38;;;;;;;8.47;4.00;;;30.70;99.90;;;;;;4861152;29;20227;-87
2023/08/21 12:32:04;;;;;;;7.77;5.27;;;31.00;99.90;;;;;;4861258;29;20191;-87
2023/08/21 12:34:30;;;;;;;14.63;4.90;;;31.20;99.90;;;;;;4861251;29;20592;-88
2023/08/21 12:36:56;;;;;;;8.80;4.00;;;31.40;99.90;;;;;;4862062;29;20202;-85
2023/08/21 12:39:21;;;;;;;12.80;4.30;;;31.90;99.90;;;;;;4861121;29;20192;-86